sensor_id;sensor_type;location;lat;lon;timestamp;P1;durP1;ratioP1;P2;durP2;ratioP2
56373;SDS011;58212;47.034;7.376;2023-04-15T00:02:14;2.35;;;0.88;;
56373;SDS011;58212;47.034;7.376;2023-04-15T00:04:43;0.90;;;0.70;;
56373;SDS011;58212;47.034;7.376;2023-04-15T00:07:10;2.78;;;0.82;;
56373;SDS011;58212;47.034;7.376;2023-04-15T00:09:38;1.17;;;0.80;;
56373;SDS011;58212;47.034;7.376;2023-04-15T00:12:31;4.32;;;1.25;;
56373;SDS011;58212;47.034;7.376;2023-04-15T00:14:59;2.03;;;0.60;;
56373;SDS011;58212;47.034;7.376;2023-04-15T00:17:26;2.88;;;1.05;;
56373;SDS011;58212;47.034;7.376;2023-04-15T00:19:53;2.67;;;1.10;;
56373;SDS011;58212;47.034;7.376;2023-04-15T00:22:20;1.08;;;0.80;;
56373;SDS011;58212;47.034;7.376;2023-04-15T00:24:49;1.92;;;0.80;;
56373;SDS011;58212;47.034;7.376;2023-04-15T00:27:16;1.75;;;0.98;;
56373;SDS011;58212;47.034;7.376;2023-04-15T00:29:43;2.78;;;0.98;;
56373;SDS011;58212;47.034;7.376;2023-04-15T00:32:10;3.00;;;1.08;;
56373;SDS011;58212;47.034;7.376;2023-04-15T00:34:39;1.20;;;0.75;;
56373;SDS011;58212;47.034;7.376;2023-04-15T00:37:06;2.08;;;0.70;;
56373;SDS011;58212;47.034;7.376;2023-04-15T00:39:34;2.30;;;0.85;;
56373;SDS011;58212;47.034;7.376;2023-04-15T00:42:02;0.95;;;0.88;;
56373;SDS011;58212;47.034;7.376;2023-04-15T00:44:29;2.70;;;1.20;;
56373;SDS011;58212;47.034;7.376;2023-04-15T00:46:57;3.05;;;1.02;;
56373;SDS011;58212;47.034;7.376;2023-04-15T00:49:25;2.85;;;1.30;;
56373;SDS011;58212;47.034;7.376;2023-04-15T00:51:55;1.52;;;0.80;;
56373;SDS011;58212;47.034;7.376;2023-04-15T00:54:22;1.15;;;0.90;;
56373;SDS011;58212;47.034;7.376;2023-04-15T00:56:49;2.83;;;0.95;;
56373;SDS011;58212;47.034;7.376;2023-04-15T00:59:18;1.45;;;0.80;;
56373;SDS011;58212;47.034;7.376;2023-04-15T01:01:46;2.33;;;0.88;;
56373;SDS011;58212;47.034;7.376;2023-04-15T01:04:14;3.22;;;0.98;;
56373;SDS011;58212;47.034;7.376;2023-04-15T01:06:41;1.88;;;0.80;;
56373;SDS011;58212;47.034;7.376;2023-04-15T01:09:09;2.38;;;1.00;;
56373;SDS011;58212;47.034;7.376;2023-04-15T01:11:37;2.90;;;1.10;;
56373;SDS011;58212;47.034;7.376;2023-04-15T01:14:07;2.92;;;0.82;;
56373;SDS011;58212;47.034;7.376;2023-04-15T01:16:38;2.83;;;1.02;;
56373;SDS011;58212;47.034;7.376;2023-04-15T01:19:05;2.22;;;0.77;;
56373;SDS011;58212;47.034;7.376;2023-04-15T01:21:36;1.75;;;0.95;;
56373;SDS011;58212;47.034;7.376;2023-04-15T01:24:04;1.50;;;0.90;;
56373;SDS011;58212;47.034;7.376;2023-04-15T01:26:37;2.00;;;0.95;;
56373;SDS011;58212;47.034;7.376;2023-04-15T01:29:06;1.92;;;0.98;;
56373;SDS011;58212;47.034;7.376;2023-04-15T01:31:33;3.17;;;1.00;;
56373;SDS011;58212;47.034;7.376;2023-04-15T01:34:00;1.23;;;0.95;;
56373;SDS011;58212;47.034;7.376;2023-04-15T01:36:27;2.90;;;0.80;;
56373;SDS011;58212;47.034;7.376;2023-04-15T01:38:55;2.55;;;1.00;;
56373;SDS011;58212;47.034;7.376;2023-04-15T01:41:24;1.30;;;0.98;;
56373;SDS011;58212;47.034;7.376;2023-04-15T01:43:53;1.25;;;0.90;;
56373;SDS011;58212;47.034;7.376;2023-04-15T01:46:21;3.28;;;1.00;;
56373;SDS011;58212;47.034;7.376;2023-04-15T01:48:48;2.33;;;0.95;;
56373;SDS011;58212;47.034;7.376;2023-04-15T01:51:15;1.77;;;1.23;;
56373;SDS011;58212;47.034;7.376;2023-04-15T01:53:42;1.90;;;1.00;;
56373;SDS011;58212;47.034;7.376;2023-04-15T01:56:34;1.45;;;1.02;;
56373;SDS011;58212;47.034;7.376;2023-04-15T01:59:03;2.13;;;1.10;;
56373;SDS011;58212;47.034;7.376;2023-04-15T02:01:30;1.23;;;0.90;;
56373;SDS011;58212;47.034;7.376;2023-04-15T02:03:58;1.83;;;1.30;;
56373;SDS011;58212;47.034;7.376;2023-04-15T02:06:25;2.20;;;1.20;;
56373;SDS011;58212;47.034;7.376;2023-04-15T02:08:53;2.47;;;1.08;;
56373;SDS011;58212;47.034;7.376;2023-04-15T02:11:20;2.05;;;1.20;;
56373;SDS011;58212;47.034;7.376;2023-04-15T02:13:48;4.25;;;1.38;;
56373;SDS011;58212;47.034;7.376;2023-04-15T02:16:19;3.00;;;1.05;;
56373;SDS011;58212;47.034;7.376;2023-04-15T02:18:46;3.30;;;1.00;;
56373;SDS011;58212;47.034;7.376;2023-04-15T02:21:13;2.83;;;1.00;;
56373;SDS011;58212;47.034;7.376;2023-04-15T02:23:40;2.50;;;1.10;;
56373;SDS011;58212;47.034;7.376;2023-04-15T02:26:11;2.50;;;1.00;;
56373;SDS011;58212;47.034;7.376;2023-04-15T02:28:38;3.28;;;1.13;;
56373;SDS011;58212;47.034;7.376;2023-04-15T02:31:05;2.78;;;1.38;;
56373;SDS011;58212;47.034;7.376;2023-04-15T02:33:35;1.75;;;1.17;;
56373;SDS011;58212;47.034;7.376;2023-04-15T02:36:02;2.97;;;1.40;;
56373;SDS011;58212;47.034;7.376;2023-04-15T02:38:29;2.55;;;1.33;;
56373;SDS011;58212;47.034;7.376;2023-04-15T02:40:56;2.55;;;1.65;;
56373;SDS011;58212;47.034;7.376;2023-04-15T02:43:23;1.80;;;1.50;;
56373;SDS011;58212;47.034;7.376;2023-04-15T02:45:53;2.38;;;1.08;;
56373;SDS011;58212;47.034;7.376;2023-04-15T02:48:20;2.03;;;1.10;;
56373;SDS011;58212;47.034;7.376;2023-04-15T02:50:48;1.73;;;0.93;;
56373;SDS011;58212;47.034;7.376;2023-04-15T02:53:15;1.55;;;1.25;;
56373;SDS011;58212;47.034;7.376;2023-04-15T02:55:44;2.90;;;1.30;;
56373;SDS011;58212;47.034;7.376;2023-04-15T02:58:11;2.15;;;1.25;;
56373;SDS011;58212;47.034;7.376;2023-04-15T03:00:38;1.83;;;1.23;;
56373;SDS011;58212;47.034;7.376;2023-04-15T03:03:06;2.72;;;1.33;;
56373;SDS011;58212;47.034;7.376;2023-04-15T03:05:33;2.15;;;1.35;;
56373;SDS011;58212;47.034;7.376;2023-04-15T03:08:04;2.17;;;1.40;;
56373;SDS011;58212;47.034;7.376;2023-04-15T03:10:31;1.75;;;1.45;;
56373;SDS011;58212;47.034;7.376;2023-04-15T03:13:00;2.85;;;1.63;;
56373;SDS011;58212;47.034;7.376;2023-04-15T03:15:27;1.85;;;1.42;;
56373;SDS011;58212;47.034;7.376;2023-04-15T03:17:54;1.95;;;1.40;;
56373;SDS011;58212;47.034;7.376;2023-04-15T03:20:20;3.20;;;1.70;;
56373;SDS011;58212;47.034;7.376;2023-04-15T03:22:48;2.88;;;1.48;;
56373;SDS011;58212;47.034;7.376;2023-04-15T03:25:16;1.23;;;1.13;;
56373;SDS011;58212;47.034;7.376;2023-04-15T03:27:43;2.83;;;1.58;;
56373;SDS011;58212;47.034;7.376;2023-04-15T03:30:12;2.42;;;1.40;;
56373;SDS011;58212;47.034;7.376;2023-04-15T03:32:40;4.45;;;1.40;;
56373;SDS011;58212;47.034;7.376;2023-04-15T03:35:07;2.50;;;1.60;;
56373;SDS011;58212;47.034;7.376;2023-04-15T03:37:34;1.95;;;1.45;;
56373;SDS011;58212;47.034;7.376;2023-04-15T03:40:02;2.97;;;1.60;;
56373;SDS011;58212;47.034;7.376;2023-04-15T03:42:31;2.03;;;1.40;;
56373;SDS011;58212;47.034;7.376;2023-04-15T03:44:58;4.80;;;1.70;;
56373;SDS011;58212;47.034;7.376;2023-04-15T03:47:25;3.65;;;1.55;;
56373;SDS011;58212;47.034;7.376;2023-04-15T03:49:52;2.72;;;1.73;;
56373;SDS011;58212;47.034;7.376;2023-04-15T03:52:19;2.42;;;1.60;;
56373;SDS011;58212;47.034;7.376;2023-04-15T03:54:46;2.85;;;1.60;;
56373;SDS011;58212;47.034;7.376;2023-04-15T03:57:13;2.50;;;1.63;;
56373;SDS011;58212;47.034;7.376;2023-04-15T03:59:41;2.17;;;1.50;;
56373;SDS011;58212;47.034;7.376;2023-04-15T04:02:08;1.88;;;1.67;;
56373;SDS011;58212;47.034;7.376;2023-04-15T04:04:35;2.17;;;1.60;;
56373;SDS011;58212;47.034;7.376;2023-04-15T04:07:02;2.45;;;1.63;;
56373;SDS011;58212;47.034;7.376;2023-04-15T04:09:29;2.53;;;1.70;;
56373;SDS011;58212;47.034;7.376;2023-04-15T04:11:56;2.85;;;1.83;;
56373;SDS011;58212;47.034;7.376;2023-04-15T04:14:23;2.00;;;1.80;;
56373;SDS011;58212;47.034;7.376;2023-04-15T04:16:55;1.92;;;1.63;;
56373;SDS011;58212;47.034;7.376;2023-04-15T04:19:22;3.00;;;1.70;;
56373;SDS011;58212;47.034;7.376;2023-04-15T04:21:50;2.38;;;1.65;;
56373;SDS011;58212;47.034;7.376;2023-04-15T04:24:17;2.97;;;2.10;;
56373;SDS011;58212;47.034;7.376;2023-04-15T04:26:44;3.70;;;1.92;;
56373;SDS011;58212;47.034;7.376;2023-04-15T04:29:11;1.92;;;1.70;;
56373;SDS011;58212;47.034;7.376;2023-04-15T04:31:38;1.80;;;1.70;;
56373;SDS011;58212;47.034;7.376;2023-04-15T04:34:06;3.33;;;2.05;;
56373;SDS011;58212;47.034;7.376;2023-04-15T04:36:33;2.80;;;2.15;;
56373;SDS011;58212;47.034;7.376;2023-04-15T04:39:00;2.47;;;2.10;;
56373;SDS011;58212;47.034;7.376;2023-04-15T04:41:27;2.80;;;1.98;;
56373;SDS011;58212;47.034;7.376;2023-04-15T04:43:54;3.33;;;2.35;;
56373;SDS011;58212;47.034;7.376;2023-04-15T04:46:24;2.47;;;1.95;;
56373;SDS011;58212;47.034;7.376;2023-04-15T04:48:51;2.30;;;1.92;;
56373;SDS011;58212;47.034;7.376;2023-04-15T04:51:19;3.03;;;2.13;;
56373;SDS011;58212;47.034;7.376;2023-04-15T04:53:47;2.65;;;1.90;;
56373;SDS011;58212;47.034;7.376;2023-04-15T04:56:14;2.70;;;2.03;;
56373;SDS011;58212;47.034;7.376;2023-04-15T04:58:41;3.00;;;1.98;;
56373;SDS011;58212;47.034;7.376;2023-04-15T05:01:08;3.17;;;2.35;;
56373;SDS011;58212;47.034;7.376;2023-04-15T05:03:35;3.15;;;2.20;;
56373;SDS011;58212;47.034;7.376;2023-04-15T05:06:02;3.13;;;2.30;;
56373;SDS011;58212;47.034;7.376;2023-04-15T05:08:32;2.40;;;2.13;;
56373;SDS011;58212;47.034;7.376;2023-04-15T05:11:00;3.40;;;2.35;;
56373;SDS011;58212;47.034;7.376;2023-04-15T05:13:27;2.33;;;2.13;;
56373;SDS011;58212;47.034;7.376;2023-04-15T05:15:55;3.15;;;2.35;;
56373;SDS011;58212;47.034;7.376;2023-04-15T05:18:22;2.28;;;2.08;;
56373;SDS011;58212;47.034;7.376;2023-04-15T05:20:50;2.58;;;2.30;;
56373;SDS011;58212;47.034;7.376;2023-04-15T05:23:17;2.80;;;2.60;;
56373;SDS011;58212;47.034;7.376;2023-04-15T05:25:50;2.58;;;2.28;;
56373;SDS011;58212;47.034;7.376;2023-04-15T05:28:16;2.65;;;2.42;;
56373;SDS011;58212;47.034;7.376;2023-04-15T05:30:43;2.47;;;2.28;;
56373;SDS011;58212;47.034;7.376;2023-04-15T05:33:11;5.00;;;2.60;;
56373;SDS011;58212;47.034;7.376;2023-04-15T05:35:39;2.22;;;1.63;;
56373;SDS011;58212;47.034;7.376;2023-04-15T05:38:06;2.60;;;1.98;;
56373;SDS011;58212;47.034;7.376;2023-04-15T05:40:33;3.13;;;2.00;;
56373;SDS011;58212;47.034;7.376;2023-04-15T05:43:01;3.13;;;1.98;;
56373;SDS011;58212;47.034;7.376;2023-04-15T05:45:28;2.33;;;1.92;;
56373;SDS011;58212;47.034;7.376;2023-04-15T05:47:55;2.78;;;2.33;;
56373;SDS011;58212;47.034;7.376;2023-04-15T05:50:22;3.22;;;2.40;;
56373;SDS011;58212;47.034;7.376;2023-04-15T05:52:49;4.22;;;2.83;;
56373;SDS011;58212;47.034;7.376;2023-04-15T05:55:16;3.08;;;2.70;;
56373;SDS011;58212;47.034;7.376;2023-04-15T05:57:43;2.72;;;2.13;;
56373;SDS011;58212;47.034;7.376;2023-04-15T06:00:12;3.55;;;2.35;;
56373;SDS011;58212;47.034;7.376;2023-04-15T06:02:40;3.90;;;2.22;;
56373;SDS011;58212;47.034;7.376;2023-04-15T06:05:07;2.28;;;1.90;;
56373;SDS011;58212;47.034;7.376;2023-04-15T06:07:36;2.38;;;1.70;;
56373;SDS011;58212;47.034;7.376;2023-04-15T06:10:04;3.15;;;2.10;;
56373;SDS011;58212;47.034;7.376;2023-04-15T06:12:35;2.72;;;1.90;;
56373;SDS011;58212;47.034;7.376;2023-04-15T06:15:02;2.65;;;1.85;;
56373;SDS011;58212;47.034;7.376;2023-04-15T06:17:33;2.47;;;1.95;;
56373;SDS011;58212;47.034;7.376;2023-04-15T06:19:59;3.15;;;2.13;;
56373;SDS011;58212;47.034;7.376;2023-04-15T06:22:26;2.72;;;2.08;;
56373;SDS011;58212;47.034;7.376;2023-04-15T06:25:19;3.15;;;2.15;;
56373;SDS011;58212;47.034;7.376;2023-04-15T06:27:46;3.25;;;2.22;;
56373;SDS011;58212;47.034;7.376;2023-04-15T06:30:13;2.47;;;1.70;;
56373;SDS011;58212;47.034;7.376;2023-04-15T06:32:42;3.85;;;1.83;;
56373;SDS011;58212;47.034;7.376;2023-04-15T06:35:09;2.72;;;1.70;;
56373;SDS011;58212;47.034;7.376;2023-04-15T06:37:36;3.22;;;1.60;;
56373;SDS011;58212;47.034;7.376;2023-04-15T06:40:04;4.75;;;2.00;;
56373;SDS011;58212;47.034;7.376;2023-04-15T06:42:32;3.67;;;1.70;;
56373;SDS011;58212;47.034;7.376;2023-04-15T06:45:01;2.53;;;1.70;;
56373;SDS011;58212;47.034;7.376;2023-04-15T06:47:28;3.42;;;1.83;;
56373;SDS011;58212;47.034;7.376;2023-04-15T06:49:57;6.10;;;4.30;;
56373;SDS011;58212;47.034;7.376;2023-04-15T06:52:24;3.05;;;1.70;;
56373;SDS011;58212;47.034;7.376;2023-04-15T06:54:51;3.03;;;1.58;;
56373;SDS011;58212;47.034;7.376;2023-04-15T06:57:17;1.63;;;1.50;;
56373;SDS011;58212;47.034;7.376;2023-04-15T06:59:45;3.13;;;1.58;;
56373;SDS011;58212;47.034;7.376;2023-04-15T07:02:12;2.10;;;1.60;;
56373;SDS011;58212;47.034;7.376;2023-04-15T07:04:40;2.42;;;2.10;;
56373;SDS011;58212;47.034;7.376;2023-04-15T07:07:08;3.33;;;1.50;;
56373;SDS011;58212;47.034;7.376;2023-04-15T07:09:36;3.35;;;2.17;;
56373;SDS011;58212;47.034;7.376;2023-04-15T07:12:03;3.80;;;1.70;;
56373;SDS011;58212;47.034;7.376;2023-04-15T07:14:30;3.50;;;1.92;;
56373;SDS011;58212;47.034;7.376;2023-04-15T07:16:57;2.55;;;1.88;;
56373;SDS011;58212;47.034;7.376;2023-04-15T07:19:24;3.92;;;2.00;;
56373;SDS011;58212;47.034;7.376;2023-04-15T07:21:51;3.03;;;2.05;;
56373;SDS011;58212;47.034;7.376;2023-04-15T07:24:20;2.80;;;1.67;;
56373;SDS011;58212;47.034;7.376;2023-04-15T07:26:50;4.03;;;1.88;;
56373;SDS011;58212;47.034;7.376;2023-04-15T07:29:18;4.47;;;1.80;;
56373;SDS011;58212;47.034;7.376;2023-04-15T07:31:45;2.80;;;1.60;;
56373;SDS011;58212;47.034;7.376;2023-04-15T07:34:12;2.08;;;1.45;;
56373;SDS011;58212;47.034;7.376;2023-04-15T07:36:40;4.35;;;1.80;;
56373;SDS011;58212;47.034;7.376;2023-04-15T07:39:07;2.67;;;1.60;;
56373;SDS011;58212;47.034;7.376;2023-04-15T07:41:36;2.55;;;1.33;;
56373;SDS011;58212;47.034;7.376;2023-04-15T07:44:03;2.97;;;1.52;;
56373;SDS011;58212;47.034;7.376;2023-04-15T07:46:29;4.60;;;1.67;;
56373;SDS011;58212;47.034;7.376;2023-04-15T07:48:57;1.67;;;1.42;;
56373;SDS011;58212;47.034;7.376;2023-04-15T07:51:24;3.40;;;1.20;;
56373;SDS011;58212;47.034;7.376;2023-04-15T07:53:51;2.80;;;1.23;;
56373;SDS011;58212;47.034;7.376;2023-04-15T07:56:19;3.55;;;1.60;;
56373;SDS011;58212;47.034;7.376;2023-04-15T07:58:48;2.38;;;1.60;;
56373;SDS011;58212;47.034;7.376;2023-04-15T08:01:15;2.45;;;1.25;;
56373;SDS011;58212;47.034;7.376;2023-04-15T08:03:42;3.28;;;1.40;;
56373;SDS011;58212;47.034;7.376;2023-04-15T08:06:09;3.55;;;1.42;;
56373;SDS011;58212;47.034;7.376;2023-04-15T08:08:37;2.40;;;1.70;;
56373;SDS011;58212;47.034;7.376;2023-04-15T08:11:04;2.78;;;1.63;;
56373;SDS011;58212;47.034;7.376;2023-04-15T08:13:31;4.97;;;1.30;;
56373;SDS011;58212;47.034;7.376;2023-04-15T08:16:17;2.22;;;1.20;;
56373;SDS011;58212;47.034;7.376;2023-04-15T08:18:45;2.53;;;1.30;;
56373;SDS011;58212;47.034;7.376;2023-04-15T08:21:12;2.65;;;1.42;;
56373;SDS011;58212;47.034;7.376;2023-04-15T08:23:41;1.92;;;1.38;;
56373;SDS011;58212;47.034;7.376;2023-04-15T08:26:09;1.30;;;1.15;;
56373;SDS011;58212;47.034;7.376;2023-04-15T08:28:36;2.65;;;1.40;;
56373;SDS011;58212;47.034;7.376;2023-04-15T08:31:04;2.45;;;1.15;;
56373;SDS011;58212;47.034;7.376;2023-04-15T08:33:37;1.85;;;1.23;;
56373;SDS011;58212;47.034;7.376;2023-04-15T08:36:04;2.90;;;1.23;;
56373;SDS011;58212;47.034;7.376;2023-04-15T08:38:31;1.50;;;1.27;;
56373;SDS011;58212;47.034;7.376;2023-04-15T08:40:59;2.10;;;1.17;;
56373;SDS011;58212;47.034;7.376;2023-04-15T08:43:32;2.30;;;1.25;;
56373;SDS011;58212;47.034;7.376;2023-04-15T08:46:00;3.30;;;1.42;;
56373;SDS011;58212;47.034;7.376;2023-04-15T08:48:31;3.00;;;1.25;;
56373;SDS011;58212;47.034;7.376;2023-04-15T08:51:02;2.28;;;1.50;;
56373;SDS011;58212;47.034;7.376;2023-04-15T08:53:29;2.88;;;1.42;;
56373;SDS011;58212;47.034;7.376;2023-04-15T08:55:56;1.50;;;1.30;;
56373;SDS011;58212;47.034;7.376;2023-04-15T08:58:29;1.58;;;1.45;;
56373;SDS011;58212;47.034;7.376;2023-04-15T09:00:57;3.65;;;1.17;;
56373;SDS011;58212;47.034;7.376;2023-04-15T09:03:24;2.08;;;1.20;;
56373;SDS011;58212;47.034;7.376;2023-04-15T09:05:52;0.80;;;0.60;;
56373;SDS011;58212;47.034;7.376;2023-04-15T09:08:21;0.68;;;0.45;;
56373;SDS011;58212;47.034;7.376;2023-04-15T09:10:48;0.57;;;0.40;;
56373;SDS011;58212;47.034;7.376;2023-04-15T09:13:15;0.47;;;0.35;;
56373;SDS011;58212;47.034;7.376;2023-04-15T09:15:43;0.30;;;0.30;;
56373;SDS011;58212;47.034;7.376;2023-04-15T09:18:10;0.55;;;0.30;;
56373;SDS011;58212;47.034;7.376;2023-04-15T09:20:38;0.35;;;0.35;;
56373;SDS011;58212;47.034;7.376;2023-04-15T09:23:10;1.20;;;0.35;;
56373;SDS011;58212;47.034;7.376;2023-04-15T09:25:40;0.38;;;0.30;;
56373;SDS011;58212;47.034;7.376;2023-04-15T09:28:07;0.43;;;0.30;;
56373;SDS011;58212;47.034;7.376;2023-04-15T09:30:34;0.40;;;0.40;;
56373;SDS011;58212;47.034;7.376;2023-04-15T09:33:02;1.52;;;0.30;;
56373;SDS011;58212;47.034;7.376;2023-04-15T09:35:33;0.20;;;0.20;;
56373;SDS011;58212;47.034;7.376;2023-04-15T09:38:01;0.10;;;0.10;;
56373;SDS011;58212;47.034;7.376;2023-04-15T09:40:30;0.20;;;0.20;;
56373;SDS011;58212;47.034;7.376;2023-04-15T09:42:59;0.20;;;0.20;;
56373;SDS011;58212;47.034;7.376;2023-04-15T09:45:27;0.20;;;0.20;;
56373;SDS011;58212;47.034;7.376;2023-04-15T09:47:55;0.13;;;0.10;;
56373;SDS011;58212;47.034;7.376;2023-04-15T09:50:26;0.13;;;0.13;;
56373;SDS011;58212;47.034;7.376;2023-04-15T09:52:54;0.40;;;0.40;;
56373;SDS011;58212;47.034;7.376;2023-04-15T09:55:22;0.40;;;0.20;;
56373;SDS011;58212;47.034;7.376;2023-04-15T09:57:49;0.60;;;0.60;;
56373;SDS011;58212;47.034;7.376;2023-04-15T10:00:17;0.32;;;0.30;;
56373;SDS011;58212;47.034;7.376;2023-04-15T10:02:44;0.30;;;0.25;;
56373;SDS011;58212;47.034;7.376;2023-04-15T10:05:14;0.20;;;0.20;;
56373;SDS011;58212;47.034;7.376;2023-04-15T10:07:41;0.10;;;0.10;;
56373;SDS011;58212;47.034;7.376;2023-04-15T10:10:09;1.17;;;0.20;;
56373;SDS011;58212;47.034;7.376;2023-04-15T10:12:37;0.20;;;0.20;;
56373;SDS011;58212;47.034;7.376;2023-04-15T10:15:08;0.20;;;0.20;;
56373;SDS011;58212;47.034;7.376;2023-04-15T10:17:41;0.10;;;0.10;;
56373;SDS011;58212;47.034;7.376;2023-04-15T10:20:09;0.20;;;0.20;;
56373;SDS011;58212;47.034;7.376;2023-04-15T10:22:38;0.30;;;0.28;;
56373;SDS011;58212;47.034;7.376;2023-04-15T10:25:07;0.20;;;0.20;;
56373;SDS011;58212;47.034;7.376;2023-04-15T10:27:35;0.20;;;0.20;;
56373;SDS011;58212;47.034;7.376;2023-04-15T10:30:05;0.20;;;0.20;;
56373;SDS011;58212;47.034;7.376;2023-04-15T10:32:33;0.15;;;0.15;;
56373;SDS011;58212;47.034;7.376;2023-04-15T10:35:02;0.52;;;0.28;;
56373;SDS011;58212;47.034;7.376;2023-04-15T10:37:32;0.50;;;0.30;;
56373;SDS011;58212;47.034;7.376;2023-04-15T10:42:50;0.73;;;0.40;;
56373;SDS011;58212;47.034;7.376;2023-04-15T10:45:17;0.60;;;0.40;;
56373;SDS011;58212;47.034;7.376;2023-04-15T10:47:44;0.38;;;0.30;;
56373;SDS011;58212;47.034;7.376;2023-04-15T10:50:12;0.20;;;0.20;;
56373;SDS011;58212;47.034;7.376;2023-04-15T10:52:40;0.28;;;0.20;;
56373;SDS011;58212;47.034;7.376;2023-04-15T10:55:13;2.08;;;0.40;;
56373;SDS011;58212;47.034;7.376;2023-04-15T10:57:46;0.93;;;0.50;;
56373;SDS011;58212;47.034;7.376;2023-04-15T11:00:17;0.40;;;0.40;;
56373;SDS011;58212;47.034;7.376;2023-04-15T11:02:47;0.50;;;0.30;;
56373;SDS011;58212;47.034;7.376;2023-04-15T11:05:21;1.05;;;0.73;;
56373;SDS011;58212;47.034;7.376;2023-04-15T11:07:52;0.20;;;0.20;;
56373;SDS011;58212;47.034;7.376;2023-04-15T11:13:27;0.17;;;0.17;;
56373;SDS011;58212;47.034;7.376;2023-04-15T11:15:56;1.38;;;0.20;;
56373;SDS011;58212;47.034;7.376;2023-04-15T11:18:26;0.40;;;0.20;;
56373;SDS011;58212;47.034;7.376;2023-04-15T11:21:00;0.30;;;0.22;;
56373;SDS011;58212;47.034;7.376;2023-04-15T11:23:33;1.88;;;0.45;;
56373;SDS011;58212;47.034;7.376;2023-04-15T11:26:03;0.88;;;0.30;;
56373;SDS011;58212;47.034;7.376;2023-04-15T11:28:33;0.85;;;0.30;;
56373;SDS011;58212;47.034;7.376;2023-04-15T11:31:05;0.50;;;0.30;;
56373;SDS011;58212;47.034;7.376;2023-04-15T11:33:34;16.02;;;1.38;;
56373;SDS011;58212;47.034;7.376;2023-04-15T11:36:03;2.55;;;0.40;;
56373;SDS011;58212;47.034;7.376;2023-04-15T11:38:30;5.68;;;0.60;;
56373;SDS011;58212;47.034;7.376;2023-04-15T11:40:59;0.43;;;0.30;;
56373;SDS011;58212;47.034;7.376;2023-04-15T11:43:26;0.30;;;0.30;;
56373;SDS011;58212;47.034;7.376;2023-04-15T11:45:58;0.20;;;0.20;;
56373;SDS011;58212;47.034;7.376;2023-04-15T11:48:29;1.05;;;0.30;;
56373;SDS011;58212;47.034;7.376;2023-04-15T11:50:57;0.30;;;0.28;;
56373;SDS011;58212;47.034;7.376;2023-04-15T11:53:36;1.35;;;0.30;;
56373;SDS011;58212;47.034;7.376;2023-04-15T11:56:05;0.40;;;0.30;;
56373;SDS011;58212;47.034;7.376;2023-04-15T11:58:33;0.75;;;0.73;;
56373;SDS011;58212;47.034;7.376;2023-04-15T12:01:03;0.28;;;0.28;;
56373;SDS011;58212;47.034;7.376;2023-04-15T12:03:32;0.30;;;0.30;;
56373;SDS011;58212;47.034;7.376;2023-04-15T12:06:09;0.20;;;0.20;;
56373;SDS011;58212;47.034;7.376;2023-04-15T12:09:02;0.30;;;0.30;;
56373;SDS011;58212;47.034;7.376;2023-04-15T12:11:37;0.40;;;0.30;;
56373;SDS011;58212;47.034;7.376;2023-04-15T12:14:07;0.55;;;0.28;;
56373;SDS011;58212;47.034;7.376;2023-04-15T12:16:38;0.30;;;0.25;;
56373;SDS011;58212;47.034;7.376;2023-04-15T12:19:08;0.85;;;0.20;;
56373;SDS011;58212;47.034;7.376;2023-04-15T12:21:37;0.35;;;0.20;;
56373;SDS011;58212;47.034;7.376;2023-04-15T12:24:07;0.20;;;0.20;;
56373;SDS011;58212;47.034;7.376;2023-04-15T12:26:37;0.30;;;0.17;;
56373;SDS011;58212;47.034;7.376;2023-04-15T12:32:27;0.20;;;0.13;;
56373;SDS011;58212;47.034;7.376;2023-04-15T12:34:54;0.13;;;0.13;;
56373;SDS011;58212;47.034;7.376;2023-04-15T12:37:23;0.20;;;0.20;;
56373;SDS011;58212;47.034;7.376;2023-04-15T12:39:52;0.13;;;0.13;;
56373;SDS011;58212;47.034;7.376;2023-04-15T12:42:19;0.15;;;0.15;;
56373;SDS011;58212;47.034;7.376;2023-04-15T12:44:47;0.20;;;0.20;;
56373;SDS011;58212;47.034;7.376;2023-04-15T12:47:18;0.30;;;0.20;;
56373;SDS011;58212;47.034;7.376;2023-04-15T12:49:48;0.20;;;0.20;;
56373;SDS011;58212;47.034;7.376;2023-04-15T12:52:16;0.10;;;0.10;;
56373;SDS011;58212;47.034;7.376;2023-04-15T12:54:43;0.50;;;0.28;;
56373;SDS011;58212;47.034;7.376;2023-04-15T12:57:11;1.08;;;0.60;;
56373;SDS011;58212;47.034;7.376;2023-04-15T12:59:39;0.60;;;0.30;;
56373;SDS011;58212;47.034;7.376;2023-04-15T13:02:06;4.38;;;2.13;;
56373;SDS011;58212;47.034;7.376;2023-04-15T13:04:33;1.95;;;1.05;;
56373;SDS011;58212;47.034;7.376;2023-04-15T13:07:01;0.30;;;0.30;;
56373;SDS011;58212;47.034;7.376;2023-04-15T13:09:28;0.28;;;0.22;;
56373;SDS011;58212;47.034;7.376;2023-04-15T13:11:55;0.70;;;0.40;;
56373;SDS011;58212;47.034;7.376;2023-04-15T13:14:24;0.95;;;0.20;;
56373;SDS011;58212;47.034;7.376;2023-04-15T13:16:52;0.70;;;0.22;;
56373;SDS011;58212;47.034;7.376;2023-04-15T13:19:19;0.28;;;0.25;;
56373;SDS011;58212;47.034;7.376;2023-04-15T13:21:46;0.30;;;0.20;;
56373;SDS011;58212;47.034;7.376;2023-04-15T13:24:13;0.30;;;0.30;;
56373;SDS011;58212;47.034;7.376;2023-04-15T13:26:40;0.82;;;0.30;;
56373;SDS011;58212;47.034;7.376;2023-04-15T13:29:07;0.30;;;0.30;;
56373;SDS011;58212;47.034;7.376;2023-04-15T13:31:37;0.85;;;0.20;;
56373;SDS011;58212;47.034;7.376;2023-04-15T13:34:03;0.63;;;0.30;;
56373;SDS011;58212;47.034;7.376;2023-04-15T13:36:30;0.47;;;0.40;;
56373;SDS011;58212;47.034;7.376;2023-04-15T13:38:57;1.60;;;0.30;;
56373;SDS011;58212;47.034;7.376;2023-04-15T13:41:24;0.10;;;0.10;;
56373;SDS011;58212;47.034;7.376;2023-04-15T13:43:51;0.47;;;0.20;;
56373;SDS011;58212;47.034;7.376;2023-04-15T13:46:18;0.20;;;0.17;;
56373;SDS011;58212;47.034;7.376;2023-04-15T13:48:46;0.45;;;0.20;;
56373;SDS011;58212;47.034;7.376;2023-04-15T13:51:13;0.40;;;0.30;;
56373;SDS011;58212;47.034;7.376;2023-04-15T13:53:41;0.20;;;0.20;;
56373;SDS011;58212;47.034;7.376;2023-04-15T13:56:08;0.15;;;0.15;;
56373;SDS011;58212;47.034;7.376;2023-04-15T13:58:35;0.95;;;0.10;;
56373;SDS011;58212;47.034;7.376;2023-04-15T14:01:05;0.20;;;0.20;;
56373;SDS011;58212;47.034;7.376;2023-04-15T14:03:32;0.30;;;0.20;;
56373;SDS011;58212;47.034;7.376;2023-04-15T14:06:00;0.35;;;0.20;;
56373;SDS011;58212;47.034;7.376;2023-04-15T14:08:28;1.63;;;0.28;;
56373;SDS011;58212;47.034;7.376;2023-04-15T14:10:59;0.30;;;0.15;;
56373;SDS011;58212;47.034;7.376;2023-04-15T14:13:26;0.20;;;0.20;;
56373;SDS011;58212;47.034;7.376;2023-04-15T14:15:53;1.38;;;0.60;;
56373;SDS011;58212;47.034;7.376;2023-04-15T14:18:21;0.52;;;0.28;;
56373;SDS011;58212;47.034;7.376;2023-04-15T14:20:49;0.90;;;0.20;;
56373;SDS011;58212;47.034;7.376;2023-04-15T14:23:17;0.85;;;0.20;;
56373;SDS011;58212;47.034;7.376;2023-04-15T14:25:44;0.47;;;0.20;;
56373;SDS011;58212;47.034;7.376;2023-04-15T14:28:11;0.10;;;0.10;;
56373;SDS011;58212;47.034;7.376;2023-04-15T14:30:38;0.10;;;0.10;;
56373;SDS011;58212;47.034;7.376;2023-04-15T14:33:05;0.17;;;0.17;;
56373;SDS011;58212;47.034;7.376;2023-04-15T14:35:32;0.10;;;0.10;;
56373;SDS011;58212;47.034;7.376;2023-04-15T14:37:59;0.20;;;0.10;;
56373;SDS011;58212;47.034;7.376;2023-04-15T14:40:28;0.20;;;0.20;;
56373;SDS011;58212;47.034;7.376;2023-04-15T14:42:55;0.13;;;0.10;;
56373;SDS011;58212;47.034;7.376;2023-04-15T14:45:22;0.10;;;0.10;;
56373;SDS011;58212;47.034;7.376;2023-04-15T14:47:49;0.10;;;0.10;;
56373;SDS011;58212;47.034;7.376;2023-04-15T14:50:17;0.57;;;0.20;;
56373;SDS011;58212;47.034;7.376;2023-04-15T14:52:44;0.20;;;0.20;;
56373;SDS011;58212;47.034;7.376;2023-04-15T14:55:11;0.20;;;0.20;;
56373;SDS011;58212;47.034;7.376;2023-04-15T14:57:40;0.10;;;0.10;;
56373;SDS011;58212;47.034;7.376;2023-04-15T15:00:08;0.10;;;0.10;;
56373;SDS011;58212;47.034;7.376;2023-04-15T15:02:36;0.10;;;0.10;;
56373;SDS011;58212;47.034;7.376;2023-04-15T15:05:03;0.10;;;0.10;;